Time;durP1;ratioP1;P1;durP2;ratioP2;P2;SDS_P1;SDS_P2;PMS_P1;PMS_P2;Temp;Humidity;BMP_temperature;BMP_pressure;BME280_temperature;BME280_humidity;BME280_pressure;Samples;Min_cycle;Max_cycle;Signal;HPM_P1;HPM_P2
2023/05/05 00:02:12;;;;;;;9.33;8.93;;;;;;;-145.94;47.95;76467.97;5115227;28;20268;-70
2023/05/05 00:04:39;;;;;;;8.17;8.07;;;;;;;-145.94;48.40;76476.13;5115199;28;20189;-70
2023/05/05 00:07:05;;;;;;;8.33;7.90;;;;;;;-145.94;48.17;76476.13;5115221;28;20248;-69
2023/05/05 00:09:31;;;;;;;10.10;9.30;;;;;;;-145.94;47.71;76470.00;5115015;28;20196;-70
2023/05/05 00:11:58;;;;;;;9.17;8.63;;;;;;;-145.94;48.02;76482.25;5115027;28;20268;-70
2023/05/05 00:14:24;;;;;;;9.80;9.10;;;;;;;-145.94;48.16;76478.16;5114952;28;20201;-70
2023/05/05 00:16:51;;;;;;;9.60;8.90;;;;;;;-145.94;48.28;76478.16;5115085;28;20304;-70
2023/05/05 00:19:17;;;;;;;9.23;8.73;;;;;;;-145.94;48.18;76488.34;5115109;28;20216;-70
2023/05/05 00:21:44;;;;;;;9.07;8.67;;;;;;;-145.94;47.86;76486.31;5114858;28;20185;-70
2023/05/05 00:24:10;;;;;;;9.37;8.77;;;;;;;-145.94;48.03;76484.28;5096730;28;20189;-70
2023/05/05 00:26:37;;;;;;;9.10;8.53;;;;;;;-145.94;48.32;76486.31;5114526;28;20296;-70
2023/05/05 00:29:04;;;;;;;8.27;7.97;;;;;;;-145.94;48.45;76498.56;5096571;28;20173;-70
2023/05/05 00:31:30;;;;;;;9.87;9.13;;;;;;;-145.94;48.56;76500.59;5114664;28;20238;-70
2023/05/05 00:33:57;;;;;;;8.93;8.60;;;;;;;-145.94;48.77;76496.50;5096374;28;20188;-70
2023/05/05 00:36:24;;;;;;;9.70;8.93;;;;;;;-145.94;48.86;76506.72;5114653;28;20295;-69
2023/05/05 00:38:50;;;;;;;9.03;8.67;;;;;;;-145.94;49.18;76494.47;5114437;28;20574;-70
2023/05/05 00:41:17;;;;;;;9.73;8.83;;;;;;;-145.94;49.39;76496.50;5114788;28;20278;-70
2023/05/05 00:43:43;;;;;;;9.10;8.43;;;;;;;-145.94;49.44;76502.63;5096142;28;20189;-70
2023/05/05 00:46:24;;;;;;;8.47;8.17;;;;;;;-145.94;49.15;76508.75;5114293;28;20265;-69
2023/05/05 00:48:51;;;;;;;9.37;9.07;;;;;;;-145.94;49.74;76508.75;5114631;28;20592;-69
2023/05/05 00:51:19;;;;;;;9.10;8.40;;;;;;;-145.94;49.44;76508.75;5095995;28;20651;-69
2023/05/05 00:53:47;;;;;;;9.63;9.20;;;;;;;-145.94;49.51;76496.50;5096009;28;20225;-69
2023/05/05 00:56:15;;;;;;;8.60;8.37;;;;;;;-145.94;50.21;76496.50;5095910;28;20311;-69
2023/05/05 00:58:43;;;;;;;9.33;8.83;;;;;;;-145.94;50.59;76500.59;5114460;28;20189;-70
2023/05/05 01:01:10;;;;;;;9.00;8.70;;;;;;;-145.94;50.44;76496.50;5114430;28;20235;-70
2023/05/05 01:03:38;;;;;;;8.83;8.07;;;;;;;-145.94;50.60;76484.28;5114111;28;20242;-70
2023/05/05 01:06:26;;;;;;;14.27;8.97;;;;;;;-145.94;51.05;76488.34;5113996;28;20205;-69
2023/05/05 01:09:06;;;;;;;10.23;8.60;;;;;;;-145.94;51.42;76506.72;5114605;28;20173;-70
2023/05/05 01:11:55;;;;;;;9.17;8.87;;;;;;;-145.94;50.98;76498.56;5114283;28;20273;-70
2023/05/05 01:14:39;;;;;;;9.70;9.30;;;;;;;-145.94;51.14;76498.56;5114080;28;20215;-70
2023/05/05 01:17:16;;;;;;;10.63;9.90;;;;;;;-145.94;50.77;76504.66;5114062;28;20287;-70
2023/05/05 01:19:59;;;;;;;10.00;9.37;;;;;;;-145.94;50.56;76506.72;5095592;28;20201;-70
2023/05/05 01:22:37;;;;;;;9.53;8.97;;;;;;;-145.94;50.11;76504.66;5114437;28;20197;-70
2023/05/05 01:25:32;;;;;;;9.60;9.20;;;;;;;-145.94;50.13;76504.66;5095600;28;20191;-70
2023/05/05 01:28:10;;;;;;;9.97;9.47;;;;;;;-145.94;50.95;76510.78;5113769;28;20192;-70
2023/05/05 01:31:20;;;;;;;9.43;8.83;;;;;;;-145.94;51.08;76516.91;5095529;28;20293;-70
2023/05/05 01:33:50;;;;;;;8.73;8.40;;;;;;;-145.94;50.88;76520.97;5113697;28;20185;-70
2023/05/05 01:36:24;;;;;;;10.17;9.23;;;;;;;-145.94;51.01;76523.03;5113936;28;20219;-70
2023/05/05 01:38:56;;;;;;;9.53;8.93;;;;;;;-145.94;50.88;76531.19;5095448;28;20296;-70
2023/05/05 01:41:27;;;;;;;10.33;9.67;;;;;;;-145.94;50.15;76523.03;5113666;28;20177;-70
2023/05/05 01:43:56;;;;;;;9.67;9.00;;;;;;;-145.94;49.61;76506.72;5095392;28;20555;-70
2023/05/05 01:46:23;;;;;;;9.23;8.43;;;;;;;-145.94;49.08;76492.44;5113794;28;20295;-70
2023/05/05 01:48:51;;;;;;;10.47;9.77;;;;;;;-145.94;48.58;76484.28;5113582;28;20551;-70
2023/05/05 01:51:21;;;;;;;9.47;9.10;;;;;;;-145.94;49.48;76478.16;5095344;28;20216;-70
2023/05/05 01:53:51;;;;;;;11.60;8.87;;;;;;;-145.94;49.04;76451.66;5095359;28;20227;-70
2023/05/05 01:56:21;;;;;;;9.17;7.87;;;;;;;-145.94;49.28;76439.41;5113856;28;20690;-70
2023/05/05 01:58:48;;;;;;;9.87;9.30;;;;;;;-145.94;49.19;76435.34;5095226;28;20308;-70
2023/05/05 02:01:17;;;;;;;8.83;8.43;;;;;;;-145.94;48.79;76437.38;5095187;28;20259;-70
2023/05/05 02:03:46;;;;;;;10.33;9.50;;;;;;;-145.94;49.50;76437.38;5113440;28;20550;-70
2023/05/05 02:06:15;;;;;;;9.33;8.83;;;;;;;-145.94;49.48;76402.72;5095066;28;20690;-70
2023/05/05 02:08:43;;;;;;;9.93;9.33;;;;;;;-145.94;48.51;76355.81;5095097;28;20268;-70
2023/05/05 02:11:11;;;;;;;10.17;9.57;;;;;;;-145.94;47.80;76315.03;5113376;28;20181;-69
2023/05/05 02:13:41;;;;;;;10.87;9.93;;;;;;;-145.94;47.37;76294.66;5095143;28;20614;-69
2023/05/05 02:16:14;;;;;;;10.40;9.93;;;;;;;-145.94;47.47;76280.38;5095296;28;20216;-70
2023/05/05 02:18:41;;;;;;;11.20;10.27;;;;;;;-145.94;47.42;76284.47;5095049;28;20215;-70
2023/05/05 02:21:08;;;;;;;9.87;9.37;;;;;;;-145.94;47.39;76278.34;5095358;28;20613;-70
2023/05/05 02:23:35;;;;;;;9.73;9.23;;;;;;;-145.94;47.53;76282.44;5113237;28;20264;-70
2023/05/05 02:26:08;;;;;;;11.77;10.73;;;;;;;-145.94;47.67;76274.28;5116265;28;20296;-69
2023/05/05 02:28:50;;;;;;;10.40;9.70;;;;;;;-145.94;48.26;76272.22;5098729;28;20189;-70
2023/05/05 02:31:19;;;;;;;11.43;10.67;;;;;;;-145.94;47.62;76257.97;5117627;28;20204;-69
2023/05/05 02:33:50;;;;;;;11.07;10.50;;;;;;;-145.94;47.46;76247.75;5099520;28;20250;-69
2023/05/05 02:36:20;;;;;;;16.87;10.83;;;;;;;-145.94;46.79;76253.88;5098665;28;20213;-69
2023/05/05 02:39:02;;;;;;;12.17;11.17;;;;;;;-145.94;46.89;76257.97;5098572;28;20204;-68
2023/05/05 02:41:37;;;;;;;12.63;11.63;;;;;;;-145.94;47.28;76270.19;5099470;28;20181;-69
2023/05/05 02:44:09;;;;;;;13.47;12.33;;;;;;;-145.94;47.58;76274.28;5098613;28;20199;-69
2023/05/05 02:46:37;;;;;;;12.73;11.47;;;;;;;-145.94;47.73;76280.38;5098391;28;20262;-69
2023/05/05 02:49:04;;;;;;;16.37;13.10;;;;;;;-145.94;48.04;76294.66;5098412;28;20215;-69
2023/05/05 02:51:31;;;;;;;14.07;12.87;;;;;;;-145.94;48.50;76290.59;5098369;28;20219;-69
2023/05/05 02:54:02;;;;;;;13.60;12.60;;;;;;;-145.94;48.60;76298.72;5098233;28;20276;-69
2023/05/05 02:56:46;;;;;;;17.70;12.60;;;;;;;-145.94;48.25;76304.84;5098219;28;20209;-69
2023/05/05 02:59:38;;;;;;;13.40;12.27;;;;;;;-145.94;48.44;76308.94;5116800;28;20288;-69
2023/05/05 03:02:12;;;;;;;21.60;13.63;;;;;;;-145.94;48.89;76321.16;5098586;28;20242;-69
2023/05/05 03:04:42;;;;;;;14.53;13.27;;;;;;;-145.94;49.13;76321.16;5098391;28;20185;-69
2023/05/05 03:07:13;;;;;;;13.60;12.60;;;;;;;-145.94;49.50;76333.41;5098065;28;20205;-69
2023/05/05 03:09:46;;;;;;;13.83;12.30;;;;;;;-145.94;49.72;76335.44;5098395;28;20213;-69
2023/05/05 03:12:18;;;;;;;13.60;12.20;;;;;;;-145.94;49.46;76331.34;5099012;28;20280;-69
2023/05/05 03:14:57;;;;;;;18.10;13.90;;;;;;;-145.94;50.25;76339.50;5098219;28;20189;-69
2023/05/05 03:17:24;;;;;;;16.03;14.53;;;;;;;-145.94;50.17;76341.56;5097753;28;20217;-69
2023/05/05 03:19:51;;;;;;;15.10;13.80;;;;;;;-145.94;50.04;76351.75;5098345;28;20213;-69
2023/05/05 03:22:18;;;;;;;21.23;15.60;;;;;;;-145.94;50.77;76366.03;5097755;28;20193;-69
2023/05/05 03:24:50;;;;;;;16.30;15.03;;;;;;;-145.94;50.71;76374.19;5097987;28;20212;-69
2023/05/05 03:27:20;;;;;;;20.50;15.20;;;;;;;-145.94;50.68;76376.22;5098318;28;20591;-69
2023/05/05 03:29:47;;;;;;;23.17;14.40;;;;;;;-145.94;51.02;76372.13;5097667;28;20181;-69
2023/05/05 03:32:14;;;;;;;15.03;13.73;;;;;;;-145.94;50.76;76374.19;5115956;28;20178;-69
2023/05/05 03:34:42;;;;;;;16.90;15.27;;;;;;;-145.94;50.99;76370.09;5097803;28;20186;-69
2023/05/05 03:37:08;;;;;;;16.63;14.63;;;;;;;-145.94;50.99;76376.22;5097085;28;20212;-69
2023/05/05 03:39:36;;;;;;;14.70;13.60;;;;;;;-145.94;51.34;76388.44;5097441;28;20584;-69
2023/05/05 03:42:03;;;;;;;25.23;15.50;;;;;;;-145.94;51.41;76382.34;5097356;28;20197;-69
2023/05/05 03:44:32;;;;;;;21.67;16.17;;;;;;;-145.94;51.76;76380.28;5115699;28;20177;-69
2023/05/05 03:46:58;;;;;;;20.70;15.53;;;;;;;-145.94;51.78;76382.34;5115518;28;20277;-69
2023/05/05 03:49:26;;;;;;;17.97;15.67;;;;;;;-145.94;51.90;76384.38;5097801;28;20189;-69
2023/05/05 03:51:52;;;;;;;19.27;17.47;;;;;;;-145.94;51.93;76400.69;5097263;28;20193;-69
2023/05/05 03:54:19;;;;;;;19.33;17.27;;;;;;;-145.94;52.09;76414.94;5115681;28;20177;-69
2023/05/05 03:56:45;;;;;;;26.27;17.33;;;;;;;-145.94;52.24;76404.75;5115514;28;20201;-68
2023/05/05 03:59:12;;;;;;;19.20;17.33;;;;;;;-145.94;52.37;76402.72;5115492;28;20236;-68
2023/05/05 04:01:38;;;;;;;22.00;16.87;;;;;;;-145.94;52.69;76402.72;5115280;28;20185;-68
2023/05/05 04:04:04;;;;;;;44.17;19.70;;;;;;;-145.94;52.92;76406.81;5096936;28;20193;-68
2023/05/05 04:06:31;;;;;;;20.87;18.73;;;;;;;-145.94;53.04;76404.75;5096833;28;20308;-68
2023/05/05 04:08:57;;;;;;;27.17;21.20;;;;;;;-145.94;53.08;76396.59;5115108;28;20188;-68
2023/05/05 04:11:25;;;;;;;22.13;19.40;;;;;;;-145.94;53.31;76406.81;5096809;28;20246;-68
2023/05/05 04:13:52;;;;;;;26.03;20.93;;;;;;;-145.94;53.41;76400.69;5096758;28;20193;-68
2023/05/05 04:16:18;;;;;;;22.30;19.77;;;;;;;-145.94;53.39;76419.03;5096725;28;20610;-68
2023/05/05 04:18:46;;;;;;;23.87;19.57;;;;;;;-145.94;53.69;76429.22;5096573;28;20687;-68
2023/05/05 04:21:12;;;;;;;26.63;19.07;;;;;;;-145.94;53.48;76414.94;5115101;28;20177;-69
2023/05/05 04:23:39;;;;;;;21.73;19.43;;;;;;;-145.94;53.19;76431.28;5096556;28;20208;-69
2023/05/05 04:26:06;;;;;;;29.83;19.27;;;;;;;-145.94;53.28;76433.31;5096414;28;20201;-68
2023/05/05 04:28:32;;;;;;;28.10;18.73;;;;;;;-145.94;53.44;76447.56;5096480;28;20189;-69
2023/05/05 04:31:01;;;;;;;20.57;18.47;;;;;;;-145.94;53.67;76465.94;5096465;28;20201;-69
2023/05/05 04:33:29;;;;;;;29.40;18.37;;;;;;;-145.94;53.53;76459.81;5097332;28;20178;-69
2023/05/05 04:35:56;;;;;;;26.53;19.03;;;;;;;-145.94;53.89;76467.97;5115078;28;20266;-68
2023/05/05 04:38:22;;;;;;;19.43;17.50;;;;;;;-145.94;53.85;76476.13;5096272;28;20224;-68
2023/05/05 04:40:49;;;;;;;35.53;18.07;;;;;;;-145.94;54.05;76490.41;5096299;28;20197;-69
2023/05/05 04:43:16;;;;;;;25.10;18.70;;;;;;;-145.94;54.40;76494.47;5096229;28;20670;-69
2023/05/05 04:45:53;;;;;;;24.10;18.13;;;;;;;-145.94;54.42;76508.75;5096159;28;20304;-68
2023/05/05 04:48:22;;;;;;;24.40;19.10;;;;;;;-145.94;54.64;76500.59;5095392;28;20538;-68
2023/05/05 04:50:50;;;;;;;24.63;18.20;;;;;;;-145.94;54.28;76490.41;5096040;28;20705;-68
2023/05/05 04:53:16;;;;;;;23.47;18.63;;;;;;;-145.94;54.02;76486.31;5096030;28;20185;-68
2023/05/05 04:55:43;;;;;;;24.33;18.13;;;;;;;-145.94;54.09;76490.41;5095924;28;20216;-68
2023/05/05 04:58:10;;;;;;;26.13;18.03;;;;;;;-145.94;54.47;76488.34;5114213;28;20185;-69
2023/05/05 05:00:36;;;;;;;22.80;18.73;;;;;;;-145.94;54.12;76500.59;5095802;28;20209;-69
2023/05/05 05:03:03;;;;;;;21.20;17.40;;;;;;;-145.94;54.61;76496.50;5114345;28;20205;-69
2023/05/05 05:05:29;;;;;;;20.30;17.47;;;;;;;-145.94;54.77;76510.78;5113957;28;20186;-69
2023/05/05 05:07:56;;;;;;;23.07;19.17;;;;;;;-145.94;54.92;76510.78;5095874;28;20250;-69
2023/05/05 05:10:22;;;;;;;33.37;18.10;;;;;;;-145.94;55.06;76516.91;5113949;28;20227;-69
2023/05/05 05:12:49;;;;;;;26.23;17.90;;;;;;;-145.94;54.94;76518.94;5095844;28;20199;-69
2023/05/05 05:15:15;;;;;;;31.37;19.60;;;;;;;-145.94;55.41;76531.19;5095837;28;20196;-69
2023/05/05 05:17:42;;;;;;;22.40;18.80;;;;;;;-145.94;55.72;76531.19;5095558;28;20722;-69
2023/05/05 05:20:08;;;;;;;20.93;18.67;;;;;;;-145.94;55.44;76527.09;5095509;28;20204;-69
2023/05/05 05:22:37;;;;;;;26.27;19.13;;;;;;;-145.94;55.03;76510.78;5095468;28;20184;-69
2023/05/05 05:25:07;;;;;;;28.27;19.10;;;;;;;-145.94;55.40;76514.88;5095509;28;20199;-69
2023/05/05 05:27:34;;;;;;;24.23;19.53;;;;;;;-145.94;55.54;76514.88;5095560;28;20228;-69
2023/05/05 05:30:00;;;;;;;37.73;19.30;;;;;;;-145.94;55.07;76510.78;5113878;28;20188;-69
2023/05/05 05:32:27;;;;;;;27.43;20.67;;;;;;;-145.94;55.71;76510.78;5095721;28;20197;-69
2023/05/05 05:34:54;;;;;;;24.63;20.13;;;;;;;-145.94;55.45;76506.72;5095640;28;20185;-69
2023/05/05 05:37:21;;;;;;;31.77;19.13;;;;;;;-145.94;55.71;76498.56;5095276;28;20209;-69
2023/05/05 05:39:51;;;;;;;21.97;19.77;;;;;;;-145.94;55.42;76504.66;5095287;28;20678;-69
2023/05/05 05:42:19;;;;;;;35.17;19.37;;;;;;;-145.94;55.15;76504.66;5095327;28;20238;-69
2023/05/05 05:44:46;;;;;;;21.83;19.50;;;;;;;-145.94;55.21;76498.56;5095337;28;20193;-69
2023/05/05 05:47:13;;;;;;;28.90;19.50;;;;;;;-145.94;55.37;76498.56;5095201;28;20266;-69
2023/05/05 05:49:40;;;;;;;42.67;20.77;;;;;;;-145.94;55.14;76490.41;5095177;28;20656;-69
2023/05/05 05:52:06;;;;;;;25.10;19.13;;;;;;;-145.94;54.77;76498.56;5113474;28;20185;-69
2023/05/05 05:54:34;;;;;;;21.63;19.33;;;;;;;-145.94;54.58;76490.41;5113735;28;20610;-69
2023/05/05 05:57:02;;;;;;;24.17;19.03;;;;;;;-145.94;55.02;76490.41;5095189;28;20303;-70
2023/05/05 05:59:29;;;;;;;21.90;19.63;;;;;;;-145.94;54.95;76488.34;5097540;28;20239;-69
2023/05/05 06:01:56;;;;;;;26.57;20.47;;;;;;;-145.94;54.88;76488.34;5117680;28;20267;-70
2023/05/05 06:04:22;;;;;;;25.57;20.00;;;;;;;-145.94;55.40;76496.50;5100134;28;20540;-70
2023/05/05 06:06:49;;;;;;;40.17;21.03;;;;;;;-145.94;54.92;76476.13;5099062;28;20606;-69
2023/05/05 06:09:15;;;;;;;29.07;21.33;;;;;;;-145.94;54.76;76467.97;5118058;28;20268;-69
2023/05/05 06:11:42;;;;;;;23.57;19.27;;;;;;;-145.94;54.54;76459.81;5099175;28;20615;-69
2023/05/05 06:14:08;;;;;;;28.63;19.60;;;;;;;-145.94;54.89;76451.66;5099038;28;20199;-69
2023/05/05 06:16:35;;;;;;;22.23;19.80;;;;;;;-145.94;54.38;76447.56;5099186;28;20629;-70
2023/05/05 06:19:08;;;;;;;23.73;17.87;;;;;;;-145.94;53.55;76439.41;5099656;28;20208;-71
2023/05/05 06:21:35;;;;;;;20.47;18.23;;;;;;;-145.94;53.42;76435.34;5098913;28;20193;-70
2023/05/05 06:24:02;;;;;;;19.53;17.57;;;;;;;-145.94;53.68;76435.34;5098890;28;20670;-69
2023/05/05 06:26:30;;;;;;;21.20;16.67;;;;;;;-145.94;53.79;76431.28;5098744;28;20216;-70
2023/05/05 06:28:56;;;;;;;21.13;15.97;;;;;;;-145.94;53.02;76427.19;5117374;28;20256;-70
2023/05/05 06:31:23;;;;;;;18.80;15.87;;;;;;;-145.94;52.67;76417.00;5116981;28;20194;-69
2023/05/05 06:33:49;;;;;;;18.43;16.70;;;;;;;-145.94;53.33;76412.91;5117051;28;20181;-70
2023/05/05 06:36:16;;;;;;;16.93;14.50;;;;;;;-145.94;51.96;76412.91;5117363;28;20197;-71
2023/05/05 06:38:42;;;;;;;13.50;12.57;;;;;;;-145.94;51.73;76402.72;5116936;28;20600;-71
2023/05/05 06:41:09;;;;;;;15.77;14.30;;;;;;;-145.94;51.88;76382.34;5117159;28;20300;-70
2023/05/05 06:43:35;;;;;;;19.87;14.30;;;;;;;-145.94;52.33;76370.09;5116847;28;20177;-70
2023/05/05 06:46:06;;;;;;;14.10;13.00;;;;;;;-145.94;51.09;76355.81;5116799;28;20250;-69
2023/05/05 06:48:32;;;;;;;22.17;12.30;;;;;;;-145.94;51.03;76349.72;5116703;28;20185;-70
2023/05/05 06:50:59;;;;;;;12.57;11.67;;;;;;;-145.94;51.05;76345.63;5116905;28;20527;-70
2023/05/05 06:53:25;;;;;;;10.93;10.23;;;;;;;-145.94;49.93;76337.47;5116871;28;20185;-71
2023/05/05 06:55:51;;;;;;;11.60;10.43;;;;;;;-145.94;49.95;76323.19;5117308;28;20292;-70
2023/05/05 06:58:18;;;;;;;10.00;9.23;;;;;;;-145.94;49.30;76321.16;5117124;28;20719;-71
2023/05/05 07:00:44;;;;;;;9.07;8.30;;;;;;;-145.94;49.28;76304.84;5116952;28;20209;-71
2023/05/05 07:03:11;;;;;;;9.37;8.03;;;;;;;-145.94;49.31;76294.66;5116505;28;20246;-71
2023/05/05 07:05:37;;;;;;;13.20;7.73;;;;;;;-145.94;48.91;76292.63;5116671;28;20184;-70
2023/05/05 07:08:04;;;;;;;8.77;8.50;;;;;;;-145.94;49.13;76292.63;5116558;28;20242;-70
2023/05/05 07:10:31;;;;;;;8.37;7.83;;;;;;;-145.94;48.76;76294.66;5115934;28;20253;-71
2023/05/05 07:12:57;;;;;;;27.93;8.40;;;;;;;-145.94;49.26;76290.59;5116224;28;20188;-71
2023/05/05 07:15:24;;;;;;;9.23;8.57;;;;;;;-145.94;49.18;76290.59;5116393;28;20190;-69
2023/05/05 07:17:55;;;;;;;9.37;8.90;;;;;;;-145.94;48.57;76288.53;5116505;28;20574;-70
2023/05/05 07:20:22;;;;;;;12.40;9.33;;;;;;;-145.94;48.74;76300.78;5116274;28;20216;-71
2023/05/05 07:22:48;;;;;;;8.37;7.87;;;;;;;-145.94;49.01;76306.88;5116335;28;20284;-70
2023/05/05 07:25:15;;;;;;;10.20;9.47;;;;;;;-145.94;48.97;76302.81;5115992;28;20268;-70
2023/05/05 07:27:42;;;;;;;8.67;8.30;;;;;;;-145.94;48.68;76315.03;5115930;28;20225;-70
2023/05/05 07:30:08;;;;;;;9.37;8.57;;;;;;;-145.94;48.07;76327.28;5115913;28;20189;-70
2023/05/05 07:32:40;;;;;;;9.57;8.97;;;;;;;-145.94;48.96;76331.34;5116494;28;20182;-70
2023/05/05 07:35:07;;;;;;;11.63;10.57;;;;;;;-145.94;48.88;76335.44;5115828;28;20659;-70
2023/05/05 07:37:34;;;;;;;10.50;9.83;;;;;;;-145.94;49.54;76337.47;5115678;28;20207;-70
2023/05/05 07:40:01;;;;;;;9.60;9.20;;;;;;;-145.94;49.42;76325.25;5115575;28;20292;-70
2023/05/05 07:42:27;;;;;;;20.10;9.43;;;;;;;-145.94;49.91;76321.16;5116360;28;20238;-69
2023/05/05 07:44:54;;;;;;;9.80;8.97;;;;;;;-145.94;49.39;76319.13;5116351;28;20169;-71
2023/05/05 07:47:20;;;;;;;9.43;8.67;;;;;;;-145.94;49.74;76319.13;5115540;28;20232;-70
2023/05/05 07:49:47;;;;;;;10.20;9.67;;;;;;;-145.94;49.79;76321.16;5115910;28;20181;-70
2023/05/05 07:52:13;;;;;;;10.20;9.60;;;;;;;-145.94;49.38;76315.03;5116906;28;20283;-71
2023/05/05 07:54:41;;;;;;;10.77;10.10;;;;;;;-145.94;49.87;76308.94;5117566;28;20223;-70
2023/05/05 07:57:07;;;;;;;19.37;10.30;;;;;;;-145.94;49.71;76313.00;5116426;28;20207;-70
2023/05/05 07:59:34;;;;;;;11.23;10.50;;;;;;;-145.94;49.82;76308.94;5115305;28;20205;-70
2023/05/05 08:02:00;;;;;;;11.20;10.07;;;;;;;-145.94;49.90;76308.94;5115219;28;20276;-70
2023/05/05 08:04:26;;;;;;;10.30;9.80;;;;;;;-145.94;49.68;76304.84;5115270;28;20191;-71
2023/05/05 08:06:53;;;;;;;11.60;10.63;;;;;;;-145.94;49.67;76302.81;5115112;28;20687;-70
2023/05/05 08:09:19;;;;;;;11.37;10.67;;;;;;;-145.94;50.00;76298.72;5115111;28;20673;-70
2023/05/05 08:11:45;;;;;;;12.67;11.73;;;;;;;-145.94;49.80;76302.81;5115049;28;20185;-70
2023/05/05 08:14:12;;;;;;;13.10;11.50;;;;;;;-145.94;49.62;76306.88;5114895;28;20193;-71
2023/05/05 08:16:38;;;;;;;12.40;11.43;;;;;;;-145.94;49.82;76310.97;5115034;28;20280;-70
2023/05/05 08:19:05;;;;;;;12.93;12.03;;;;;;;-145.94;49.82;76310.97;5115576;28;20223;-70
2023/05/05 08:21:46;;;;;;;12.30;11.10;;;;;;;-145.94;49.59;76300.78;5114880;28;20204;-70
2023/05/05 08:24:13;;;;;;;13.43;12.20;;;;;;;-145.94;49.49;76292.63;5114410;28;20187;-70
2023/05/05 08:26:39;;;;;;;12.17;10.57;;;;;;;-145.94;49.77;76292.63;5114627;28;20220;-70
2023/05/05 08:29:06;;;;;;;12.20;11.40;;;;;;;-145.94;49.57;76296.69;5114833;28;20181;-70
2023/05/05 08:31:34;;;;;;;13.10;11.43;;;;;;;-145.94;49.60;76284.47;5115012;28;20669;-70
2023/05/05 08:34:01;;;;;;;11.47;10.37;;;;;;;-145.94;49.82;76280.38;5114955;28;20597;-70
2023/05/05 08:36:27;;;;;;;10.93;10.27;;;;;;;-145.94;49.75;76272.22;5114882;28;20579;-69
2023/05/05 08:38:54;;;;;;;11.77;10.67;;;;;;;-145.94;49.10;76274.28;5114609;28;20272;-69
2023/05/05 08:41:21;;;;;;;11.50;10.67;;;;;;;-145.94;49.07;76260.00;5114388;28;20207;-70
2023/05/05 08:43:49;;;;;;;11.00;9.97;;;;;;;-145.94;48.78;76251.84;5115097;28;20195;-70
2023/05/05 08:46:16;;;;;;;9.27;8.63;;;;;;;-145.94;48.36;76245.72;5114435;28;20232;-70
2023/05/05 08:48:44;;;;;;;6.53;6.43;;;;;;;-145.94;48.01;76231.44;5114579;28;20193;-70
2023/05/05 08:51:18;;;;;;;8.73;8.50;;;;;;;-145.94;47.40;76217.19;5114434;28;20698;-70
2023/05/05 08:53:54;;;;;;;8.90;8.37;;;;;;;-145.94;48.02;76209.03;5114330;28;20752;-71
2023/05/05 08:56:24;;;;;;;9.73;9.20;;;;;;;-145.94;47.42;76231.44;5114440;28;20197;-70
2023/05/05 08:58:51;;;;;;;9.60;8.93;;;;;;;-145.94;47.59;76227.38;5114593;28;20210;-70
2023/05/05 09:01:18;;;;;;;11.00;10.10;;;;;;;-145.94;47.33;76221.25;5114157;28;20266;-69
2023/05/05 09:03:45;;;;;;;9.87;8.93;;;;;;;-145.94;47.24;76231.44;5114115;28;20655;-70
2023/05/05 09:06:11;;;;;;;9.00;8.50;;;;;;;-145.94;47.54;76213.09;5114022;28;20573;-69
2023/05/05 09:08:38;;;;;;;8.70;7.87;;;;;;;-145.94;46.63;76200.88;5114081;28;20185;-69
2023/05/05 09:11:05;;;;;;;7.43;6.83;;;;;;;-145.94;46.83;76176.41;5114280;28;20224;-70
2023/05/05 09:13:32;;;;;;;7.40;6.77;;;;;;;-145.94;47.62;76162.13;5113945;28;20204;-70
2023/05/05 09:15:58;;;;;;;8.23;7.73;;;;;;;-145.94;47.21;76133.59;5113890;28;20251;-69
2023/05/05 09:18:25;;;;;;;7.93;7.20;;;;;;;-145.94;47.08;76111.16;5113921;28;20272;-70
2023/05/05 09:20:51;;;;;;;7.83;7.50;;;;;;;-145.94;46.53;76105.03;5113843;28;20288;-70
2023/05/05 09:23:19;;;;;;;8.07;7.87;;;;;;;-145.94;46.03;76115.25;5113935;28;20192;-70
2023/05/05 09:26:00;;;;;;;8.37;7.80;;;;;;;-145.94;45.56;76117.28;5113822;28;20744;-70
2023/05/05 09:28:27;;;;;;;6.53;6.20;;;;;;;-145.94;45.79;76125.44;5113727;28;20250;-70
2023/05/05 09:30:53;;;;;;;8.27;7.53;;;;;;;-145.94;45.92;76127.47;5114089;28;20177;-70
2023/05/05 09:33:30;;;;;;;8.00;7.70;;;;;;;-145.94;46.01;76123.41;5113519;28;20185;-71
2023/05/05 09:35:57;;;;;;;7.73;6.93;;;;;;;-145.94;46.04;76119.31;5113931;28;20607;-70
2023/05/05 09:38:24;;;;;;;7.60;7.27;;;;;;;-145.94;45.63;76127.47;5113933;28;20522;-71
2023/05/05 09:40:52;;;;;;;8.17;7.87;;;;;;;-145.94;46.00;76129.50;5113600;28;20237;-70
2023/05/05 09:43:20;;;;;;;7.73;7.23;;;;;;;-145.94;46.34;76121.34;5113668;28;20181;-70
2023/05/05 09:45:48;;;;;;;11.43;7.37;;;;;;;-145.94;46.51;76109.13;5113621;28;20208;-70
2023/05/05 09:48:28;;;;;;;7.07;6.87;;;;;;;-145.94;45.16;76117.28;5114257;28;20246;-70
2023/05/05 09:50:55;;;;;;;7.30;6.73;;;;;;;-145.94;45.70;76123.41;5114195;28;20177;-70
2023/05/05 09:53:23;;;;;;;5.73;5.60;;;;;;;-145.94;46.05;76119.31;5113662;28;20216;-70
2023/05/05 09:55:57;;;;;;;6.90;6.80;;;;;;;-145.94;46.36;76100.97;5113508;28;20591;-70
2023/05/05 09:58:25;;;;;;;7.10;6.87;;;;;;;-145.94;45.45;76080.56;5113592;28;20185;-70
2023/05/05 10:00:54;;;;;;;6.20;6.00;;;;;;;-145.94;44.63;76076.50;5113431;28;20285;-70
2023/05/05 10:03:21;;;;;;;5.83;5.63;;;;;;;-145.94;44.31;76084.66;5114090;28;20272;-70
2023/05/05 10:05:51;;;;;;;7.43;7.07;;;;;;;-145.94;44.78;76078.53;5113905;28;20228;-69
2023/05/05 10:08:29;;;;;;;6.63;6.43;;;;;;;-145.94;45.17;76072.44;5113449;28;20185;-70
2023/05/05 10:10:59;;;;;;;11.80;6.57;;;;;;;-145.94;45.34;76074.47;5113761;28;20655;-70
2023/05/05 10:13:26;;;;;;;5.60;5.60;;;;;;;-145.94;45.06;76072.44;5113346;28;20185;-70
2023/05/05 10:15:55;;;;;;;5.93;5.73;;;;;;;-145.94;45.12;76076.50;5113285;28;20247;-69
2023/05/05 10:18:26;;;;;;;6.13;5.57;;;;;;;-145.94;43.88;76076.50;5113380;28;20193;-70
2023/05/05 10:21:03;;;;;;;5.17;5.07;;;;;;;-145.94;44.35;76062.22;5113793;28;20198;-70
2023/05/05 10:23:55;;;;;;;4.93;4.63;;;;;;;-145.94;44.49;76027.56;5113594;28;20212;-70
2023/05/05 10:26:22;;;;;;;5.67;5.33;;;;;;;-145.94;44.09;76001.06;5113090;28;20216;-70
2023/05/05 10:28:55;;;;;;;4.80;4.70;;;;;;;-145.94;43.16;75976.59;5113202;28;20280;-70
2023/05/05 10:31:40;;;;;;;4.77;4.73;;;;;;;-145.94;42.79;75990.88;5113243;28;20162;-70
2023/05/05 10:34:16;;;;;;;4.13;4.03;;;;;;;-145.94;43.34;75974.56;5113430;28;20173;-70
2023/05/05 10:36:43;;;;;;;4.60;4.30;;;;;;;-145.94;43.74;75950.09;5113231;28;20259;-70
2023/05/05 10:39:10;;;;;;;4.83;4.70;;;;;;;-145.94;42.82;75937.88;5113040;28;20690;-70
2023/05/05 10:41:37;;;;;;;5.33;5.23;;;;;;;-145.94;41.87;75921.56;5113025;28;20197;-71
2023/05/05 10:44:05;;;;;;;8.77;5.83;;;;;;;-145.94;41.76;75921.56;5095175;28;20197;-69
2023/05/05 10:46:32;;;;;;;5.13;5.03;;;;;;;-145.94;41.66;75925.63;5115177;28;20687;-70
2023/05/05 10:49:13;;;;;;;7.20;6.93;;;;;;;-145.94;41.41;75950.09;5117247;28;20186;-71
2023/05/05 10:51:55;;;;;;;7.37;6.73;;;;;;;-145.94;41.97;75966.41;5116977;28;20181;-70
2023/05/05 10:54:31;;;;;;;5.83;5.47;;;;;;;-145.94;41.81;75968.44;5117025;28;20656;-70
2023/05/05 10:57:01;;;;;;;6.13;6.03;;;;;;;-145.94;42.16;75952.13;5117138;28;20243;-70
2023/05/05 10:59:37;;;;;;;6.50;6.13;;;;;;;-145.94;42.01;75941.94;5116354;28;20272;-71
2023/05/05 11:02:19;;;;;;;6.80;6.57;;;;;;;-145.94;41.23;75935.81;5116455;28;20197;-70
2023/05/05 11:05:05;;;;;;;11.30;6.33;;;;;;;-145.94;41.08;75921.56;5116453;28;20205;-70
2023/05/05 11:07:33;;;;;;;7.77;7.40;;;;;;;-145.94;41.46;75905.25;5116911;28;20231;-70
2023/05/05 11:10:01;;;;;;;6.50;6.37;;;;;;;-145.94;41.04;75905.25;5116336;28;20191;-70
2023/05/05 11:12:32;;;;;;;7.07;6.67;;;;;;;-145.94;41.25;75905.25;5116796;28;20189;-70
2023/05/05 11:15:25;;;;;;;7.80;7.30;;;;;;;-145.94;41.09;75895.06;5116226;28;20674;-69
2023/05/05 11:17:53;;;;;;;13.70;7.90;;;;;;;-145.94;41.38;75890.97;5116727;28;20173;-69
2023/05/05 11:20:35;;;;;;;6.70;6.40;;;;;;;-145.94;41.39;75876.69;5116303;28;20544;-69